createdAt,value
2017-06-13T00:00:48.006Z,72.74
2017-06-13T00:01:48.067Z,73.51
2017-06-13T00:02:48.105Z,73.51
2017-06-13T00:03:48.160Z,72.94
2017-06-13T00:04:48.145Z,73.22
2017-06-13T00:05:48.201Z,73.41
2017-06-13T00:06:48.221Z,73.41
2017-06-13T00:07:48.287Z,73.9
2017-06-13T00:08:48.309Z,73.99
2017-06-13T00:09:48.369Z,73.51
2017-06-13T00:10:48.385Z,73.32
2017-06-13T00:11:48.398Z,73.41
2017-06-13T00:12:48.458Z,73.7
2017-06-13T00:13:48.513Z,73.41
2017-06-13T00:14:48.489Z,73.61
2017-06-13T00:15:48.543Z,73.51
2017-06-13T00:16:48.593Z,73.61
2017-06-13T00:17:48.717Z,73.41
2017-06-13T00:18:48.642Z,73.61
2017-06-13T00:19:48.708Z,73.9
2017-06-13T00:20:48.738Z,73.8
2017-06-13T00:21:48.746Z,73.8
2017-06-13T00:22:48.796Z,74.08
2017-06-13T00:23:48.838Z,74.18
2017-06-13T00:24:48.871Z,74.37
2017-06-13T00:25:48.924Z,73.9
2017-06-13T00:26:48.945Z,73.99
2017-06-13T00:27:48.984Z,74.37
2017-06-13T00:28:48.995Z,74.57
2017-06-13T00:29:49.027Z,73.99
2017-06-13T00:30:49.070Z,73.9
2017-06-13T00:31:49.098Z,73.8
2017-06-13T00:32:49.132Z,73.9
2017-06-13T00:33:49.168Z,73.41
2017-06-13T00:34:49.209Z,74.08
2017-06-13T00:35:49.280Z,73.8
2017-06-13T00:36:49.300Z,73.8
2017-06-13T00:37:49.328Z,73.7
2017-06-13T00:38:49.347Z,73.9
2017-06-13T00:39:49.401Z,73.9
2017-06-13T00:40:49.433Z,73.41
2017-06-13T00:41:49.469Z,73.9
2017-06-13T00:42:49.497Z,73.41
2017-06-13T00:43:49.518Z,73.7
2017-06-13T00:44:49.555Z,73.7
2017-06-13T00:45:49.593Z,73.7
2017-06-13T00:46:49.643Z,73.7
2017-06-13T00:47:49.698Z,73.51
2017-06-13T00:48:49.713Z,73.61
2017-06-13T00:49:49.746Z,73.8
2017-06-13T00:50:49.814Z,73.51
2017-06-13T00:51:49.798Z,73.61
2017-06-13T00:52:49.852Z,73.7
2017-06-13T00:53:49.909Z,73.61
2017-06-13T00:54:49.892Z,74.08
2017-06-13T00:55:49.942Z,74.27
2017-06-13T00:56:49.997Z,74.57
2017-06-13T00:57:50.012Z,74.57
2017-06-13T00:58:50.043Z,74.76
2017-06-13T00:59:50.099Z,74.47
2017-06-13T01:00:50.134Z,75.14
2017-06-13T01:01:50.147Z,75.33
2017-06-13T01:02:50.204Z,74.85
2017-06-13T01:03:50.329Z,74.66
2017-06-13T01:04:50.251Z,75.23
2017-06-13T01:05:50.303Z,74.66
2017-06-13T01:06:50.343Z,74.85
2017-06-13T01:07:50.368Z,74.76
2017-06-13T01:08:50.400Z,75.1
2017-06-13T01:09:50.425Z,75.62
2017-06-13T01:10:50.487Z,75.23
2017-06-13T01:11:50.489Z,75.43
2017-06-13T01:12:50.551Z,75.62
2017-06-13T01:13:50.553Z,75.43
2017-06-13T01:14:50.610Z,75.81
2017-06-13T01:15:50.676Z,75.9
2017-06-13T01:16:50.705Z,75.62
2017-06-13T01:17:50.702Z,75.52
2017-06-13T01:18:50.748Z,75.71
2017-06-13T01:19:50.808Z,75.62
2017-06-13T01:20:50.853Z,76.15
2017-06-13T01:21:50.889Z,76.57
2017-06-13T01:22:50.885Z,76.39
2017-06-13T01:23:50.938Z,76.39
2017-06-13T01:24:50.973Z,76.44
2017-06-13T01:25:50.986Z,76.48
2017-06-13T01:26:51.073Z,76.48
2017-06-13T01:27:51.078Z,76.77
2017-06-13T01:28:51.078Z,76.57
2017-06-13T01:29:51.174Z,76.57
2017-06-13T01:30:51.209Z,76.48
2017-06-13T01:31:51.195Z,76.57
2017-06-13T01:32:51.249Z,76.57
2017-06-13T01:33:51.315Z,76.96
2017-06-13T01:34:51.299Z,77.25
2017-06-13T01:35:51.332Z,76.77
2017-06-13T01:36:51.394Z,76.77
2017-06-13T01:37:51.405Z,76.86
2017-06-13T01:38:51.461Z,76.67
2017-06-13T01:39:51.497Z,77.25
2017-06-13T01:40:51.508Z,76.57
2017-06-13T01:41:51.588Z,76.86
2017-06-13T01:42:51.585Z,76.96
2017-06-13T01:43:51.638Z,77.34
2017-06-13T01:44:51.681Z,77.82
2017-06-13T01:45:51.690Z,77.44
2017-06-13T01:46:51.742Z,77.15
2017-06-13T01:47:51.799Z,77.34
2017-06-13T01:48:51.814Z,77.53
2017-06-13T01:49:51.849Z,77.44
2017-06-13T01:50:51.857Z,77.82
2017-06-13T01:51:51.896Z,77.63
2017-06-13T01:52:51.930Z,77.82
2017-06-13T01:53:51.965Z,77.92
2017-06-13T01:54:52.003Z,78.11
2017-06-13T01:55:52.055Z,77.73
2017-06-13T01:56:52.300Z,77.5
2017-06-13T01:57:52.150Z,77.82
2017-06-13T01:58:52.160Z,77.97
2017-06-13T01:59:52.220Z,78.2
2017-06-13T02:00:52.220Z,78.11
2017-06-13T02:01:52.269Z,77.73
2017-06-13T02:02:52.424Z,77.4
2017-06-13T02:03:52.321Z,77.73
2017-06-13T02:04:52.372Z,77.53
2017-06-13T02:05:52.408Z,77.4
2017-06-13T02:06:52.438Z,77.02
2017-06-13T02:07:52.471Z,77.5
2017-06-13T02:08:52.489Z,77.5
2017-06-13T02:09:52.527Z,77.4
2017-06-13T02:10:52.583Z,77.02
2017-06-13T02:11:52.616Z,77.4
2017-06-13T02:12:52.650Z,77.4
2017-06-13T02:13:52.659Z,77.21
2017-06-13T02:14:52.696Z,77.5
2017-06-13T02:15:52.750Z,77.5
2017-06-13T02:16:52.786Z,77.21
2017-06-13T02:17:52.824Z,76.73
2017-06-13T02:18:52.886Z,76.64
2017-06-13T02:19:52.867Z,76.73
2017-06-13T02:20:52.932Z,76.73
2017-06-13T02:21:52.957Z,76.82
2017-06-13T02:22:52.978Z,76.54
2017-06-13T02:23:53.011Z,76.54
2017-06-13T02:24:53.084Z,76.73
2017-06-13T02:25:53.076Z,76.82
2017-06-13T02:26:53.154Z,77.59
2017-06-13T02:27:53.145Z,77.5
2017-06-13T02:28:53.225Z,77.31
2017-06-13T02:29:53.241Z,77.97
2017-06-13T02:30:53.253Z,77.97
2017-06-13T02:31:53.283Z,78.17
2017-06-13T02:32:53.328Z,77.78
2017-06-13T02:33:53.374Z,78.07
2017-06-13T02:34:53.413Z,78.36
2017-06-13T02:35:53.446Z,78.27
2017-06-13T02:36:53.478Z,78.13
2017-06-13T02:37:53.518Z,78.45
2017-06-13T02:38:53.530Z,78.51
2017-06-13T02:39:53.587Z,78.51
2017-06-13T02:40:53.620Z,78.7
2017-06-13T02:41:53.649Z,78.61
2017-06-13T02:42:53.689Z,78.32
2017-06-13T02:43:53.723Z,79.28
2017-06-13T02:44:53.757Z,78.89
2017-06-13T02:45:53.815Z,79.28
2017-06-13T02:46:53.831Z,79.08
2017-06-13T02:47:53.833Z,79.28
2017-06-13T02:48:53.916Z,79.95
2017-06-13T02:49:53.939Z,79.28
2017-06-13T02:50:53.945Z,79.47
2017-06-13T02:51:54.008Z,79.37
2017-06-13T02:52:54.038Z,79.57
2017-06-13T02:53:54.075Z,80.04
2017-06-13T02:54:54.103Z,80.04
2017-06-13T02:55:54.125Z,80.14
2017-06-13T02:56:54.194Z,79.85
2017-06-13T02:57:54.231Z,80.33
2017-06-13T02:58:54.246Z,80.71
2017-06-13T02:59:54.281Z,80.62
2017-06-13T03:00:54.316Z,80.81
2017-06-13T03:01:54.330Z,80.52
2017-06-13T03:02:54.381Z,80.58
2017-06-13T03:03:54.402Z,81.05
2017-06-13T03:04:54.452Z,81.54
2017-06-13T03:05:54.453Z,81.25
2017-06-13T03:06:54.487Z,80.77
2017-06-13T03:07:54.554Z,81.44
2017-06-13T03:08:54.568Z,81.63
2017-06-13T03:09:54.639Z,81.73
2017-06-13T03:10:54.645Z,81.63
2017-06-13T03:11:54.669Z,81.82
2017-06-13T03:12:54.747Z,81.44
2017-06-13T03:13:54.746Z,81.82
2017-06-13T03:14:54.811Z,81.44
2017-06-13T03:15:54.831Z,82.11
2017-06-13T03:16:54.865Z,81.92
2017-06-13T03:17:54.880Z,81.82
2017-06-13T03:18:54.916Z,82.3
2017-06-13T03:19:54.970Z,82.78
2017-06-13T03:20:55.007Z,82.78
2017-06-13T03:21:55.042Z,82.49
2017-06-13T03:22:55.080Z,82.78
2017-06-13T03:23:55.110Z,83.16
2017-06-13T03:24:55.147Z,83.26
2017-06-13T03:25:55.172Z,82.49
2017-06-13T03:26:55.221Z,83.06
2017-06-13T03:27:55.249Z,82.11
2017-06-13T03:28:55.246Z,83.26
2017-06-13T03:29:55.326Z,83.06
2017-06-13T03:30:55.351Z,83.36
2017-06-13T03:31:55.350Z,83.26
2017-06-13T03:32:55.394Z,82.68
2017-06-13T03:33:55.470Z,83.06
2017-06-13T03:34:55.487Z,82.3
2017-06-13T03:35:55.520Z,83.16
2017-06-13T03:36:55.552Z,83.36
2017-06-13T03:37:55.594Z,83.16
2017-06-13T03:38:55.626Z,83.64
2017-06-13T03:39:55.628Z,83.45
2017-06-13T03:40:55.694Z,83.06
2017-06-13T03:41:55.730Z,82.97
2017-06-13T03:42:55.857Z,82.97
2017-06-13T03:43:55.806Z,83.06
2017-06-13T03:44:55.840Z,82.78
2017-06-13T03:45:55.866Z,82.82
2017-06-13T03:46:55.905Z,82.73
2017-06-13T03:47:55.938Z,82.73
2017-06-13T03:48:55.942Z,82.43
2017-06-13T03:49:56.006Z,82.34
2017-06-13T03:50:56.026Z,82.53
2017-06-13T03:51:56.084Z,82.24
2017-06-13T03:52:56.121Z,82.24
2017-06-13T03:53:56.129Z,82.24
2017-06-13T03:54:56.180Z,82.15
2017-06-13T03:55:56.219Z,82.34
2017-06-13T03:56:56.260Z,82.43
2017-06-13T03:57:56.307Z,82.82
2017-06-13T03:58:56.326Z,82.43
2017-06-13T03:59:56.380Z,82.53
2017-06-13T04:00:56.390Z,82.24
2017-06-13T04:01:56.608Z,83.01
2017-06-13T04:02:56.452Z,83.01
2017-06-13T04:03:56.518Z,83.3
2017-06-13T04:04:56.533Z,83.01
2017-06-13T04:05:56.563Z,82.73
2017-06-13T04:06:56.601Z,83.2
2017-06-13T04:07:56.620Z,83.39
2017-06-13T04:08:56.663Z,83.2
2017-06-13T04:09:56.701Z,83.3
2017-06-13T04:10:56.715Z,83.39
2017-06-13T04:11:56.766Z,82.43
2017-06-13T04:12:56.810Z,82.34
2017-06-13T04:13:56.891Z,82.24
2017-06-13T04:14:56.852Z,81.71
2017-06-13T04:15:56.932Z,79.89
2017-06-13T04:16:56.928Z,78.72
2017-06-13T04:17:56.990Z,77.51
2017-06-13T04:18:56.987Z,76.75
2017-06-13T04:19:57.095Z,75.79
2017-06-13T04:20:57.070Z,75.54
2017-06-13T04:21:57.103Z,74.29
2017-06-13T04:22:57.170Z,73.85
2017-06-13T04:23:57.219Z,73.08
2017-06-13T04:24:57.234Z,71.48
2017-06-13T04:25:57.277Z,70.4
2017-06-13T04:26:57.292Z,67.93
2017-06-13T04:27:57.326Z,66.36
2017-06-13T04:28:57.401Z,65.05
2017-06-13T04:29:57.401Z,63.7
2017-06-13T04:30:57.439Z,63.34
2017-06-13T04:31:57.469Z,63.18
2017-06-13T04:32:57.540Z,63.24
2017-06-13T04:33:57.545Z,64.08
2017-06-13T04:34:57.609Z,65.4
2017-06-13T04:35:57.648Z,67.07
2017-06-13T04:36:57.655Z,67.99
2017-06-13T04:37:57.709Z,69.4
2017-06-13T04:38:57.765Z,70.27
2017-06-13T04:39:57.800Z,70.72
2017-06-13T04:40:57.835Z,71.83
2017-06-13T04:41:57.873Z,72.6
2017-06-13T04:42:57.933Z,72.79
2017-06-13T04:43:58.076Z,72.79
2017-06-13T04:44:57.955Z,72.41
2017-06-13T04:45:58.003Z,72.31
2017-06-13T04:46:58.052Z,70.72
2017-06-13T04:47:58.103Z,70.27
2017-06-13T04:48:58.140Z,69.69
2017-06-13T04:49:58.158Z,70.07
2017-06-13T04:50:58.219Z,70.27
2017-06-13T04:51:58.233Z,70.17
2017-06-13T04:52:58.262Z,69.98
2017-06-13T04:53:58.353Z,70.17
2017-06-13T04:54:58.351Z,70.07
2017-06-13T04:55:58.410Z,70.52
2017-06-13T04:56:58.443Z,70.75
2017-06-13T04:57:58.454Z,70.75
2017-06-13T04:58:58.517Z,70.27
2017-06-13T04:59:58.585Z,70.27
2017-06-13T05:00:58.563Z,69.98
2017-06-13T05:01:58.632Z,70.27
2017-06-13T05:02:58.654Z,70.27
2017-06-13T05:03:58.699Z,70.62
2017-06-13T05:04:58.732Z,70.56
2017-06-13T05:05:58.791Z,70.27
2017-06-13T05:06:58.829Z,70.27
2017-06-13T05:07:58.839Z,70.07
2017-06-13T05:08:58.924Z,69.5
2017-06-13T05:09:58.941Z,69.79
2017-06-13T05:10:58.964Z,69.31
2017-06-13T05:11:59.014Z,69.82
2017-06-13T05:12:59.051Z,68.76
2017-06-13T05:13:59.072Z,68.32
2017-06-13T05:14:59.126Z,68.03
2017-06-13T05:15:59.151Z,67.19
2017-06-13T05:16:59.208Z,66.14
2017-06-13T05:17:59.268Z,66.52
2017-06-13T05:18:59.270Z,66.33
2017-06-13T05:19:59.318Z,66.33
2017-06-13T05:20:59.353Z,66.14
2017-06-13T05:21:59.402Z,65.78
2017-06-13T05:22:59.429Z,65.59
2017-06-13T05:23:59.489Z,65.69
2017-06-13T05:24:59.496Z,65.5
2017-06-13T05:25:59.551Z,65.4
2017-06-13T05:26:59.596Z,65.56
2017-06-13T05:27:59.622Z,66.24
2017-06-13T05:28:59.660Z,66.62
2017-06-13T05:29:59.678Z,67
2017-06-13T05:30:59.755Z,66.71
2017-06-13T05:31:59.929Z,66.52
2017-06-13T05:32:59.829Z,66.71
2017-06-13T05:33:59.873Z,66.62
2017-06-13T05:34:59.888Z,66.62
2017-06-13T05:35:59.930Z,66.71
2017-06-13T05:36:59.981Z,66.62
2017-06-13T05:38:00.019Z,66.71
2017-06-13T05:39:00.017Z,66.52
2017-06-13T05:40:00.098Z,66.68
2017-06-13T05:41:00.114Z,66.68
2017-06-13T05:42:00.126Z,67.45
2017-06-13T05:43:00.164Z,67.9
2017-06-13T05:44:00.203Z,68.57
2017-06-13T05:45:00.286Z,69.02
2017-06-13T05:46:00.298Z,69.4
2017-06-13T05:47:00.369Z,68.92
2017-06-13T05:48:00.374Z,69.06
2017-06-13T05:49:00.412Z,68.19
2017-06-13T05:50:00.481Z,67.83
2017-06-13T05:51:00.504Z,67.35
2017-06-13T05:52:00.514Z,66.71
2017-06-13T05:53:00.561Z,66.14
2017-06-13T05:54:00.566Z,65.75
2017-06-13T05:55:00.622Z,65.69
2017-06-13T05:56:00.675Z,65.56
2017-06-13T05:57:00.695Z,65.66
2017-06-13T05:58:00.751Z,66.42
2017-06-13T05:59:00.792Z,66.58
2017-06-13T06:00:00.804Z,66.97
2017-06-13T06:01:00.833Z,67.26
2017-06-13T06:02:00.914Z,67.51
2017-06-13T06:03:00.963Z,67.99
2017-06-13T06:04:00.959Z,68.19
2017-06-13T06:05:01.018Z,69.15
2017-06-13T06:06:01.052Z,69.6
2017-06-13T06:07:01.055Z,69.6
2017-06-13T06:08:01.110Z,70.27
2017-06-13T06:09:01.162Z,70.23
2017-06-13T06:10:01.197Z,71.14
2017-06-13T06:11:01.218Z,70.62
2017-06-13T06:12:01.271Z,71.1
2017-06-13T06:13:01.314Z,70.33
2017-06-13T06:14:01.307Z,70.33
2017-06-13T06:15:01.363Z,70.23
2017-06-13T06:16:01.425Z,71
2017-06-13T06:17:01.444Z,71.64
2017-06-13T06:18:01.469Z,71.93
2017-06-13T06:19:01.506Z,72.89
2017-06-13T06:20:01.569Z,73.66
2017-06-13T06:21:01.600Z,73.81
2017-06-13T06:22:01.619Z,74.58
2017-06-13T06:23:01.650Z,74.96
2017-06-13T06:24:01.710Z,75.25
2017-06-13T06:25:01.726Z,75.82
2017-06-13T06:26:01.783Z,75.25
2017-06-13T06:27:01.826Z,75.25
2017-06-13T06:28:01.857Z,74.68
2017-06-13T06:29:01.898Z,74.96
2017-06-13T06:30:01.905Z,74.48
2017-06-13T06:31:01.944Z,74.96
2017-06-13T06:32:02.005Z,75.45
2017-06-13T06:33:02.014Z,75.31
2017-06-13T06:34:02.053Z,75.6
2017-06-13T06:35:02.111Z,75.7
2017-06-13T06:36:02.123Z,75.7
2017-06-13T06:37:02.181Z,75.89
2017-06-13T06:38:02.194Z,75.89
2017-06-13T06:39:02.236Z,75.7
2017-06-13T06:40:02.308Z,75.98
2017-06-13T06:41:02.326Z,75.82
2017-06-13T06:42:02.358Z,75.63
2017-06-13T06:43:02.395Z,75.45
2017-06-13T06:44:02.425Z,74.48
2017-06-13T06:45:02.488Z,74.39
2017-06-13T06:46:02.506Z,74.48
2017-06-13T06:47:02.520Z,74.29
2017-06-13T06:48:02.579Z,73.91
2017-06-13T06:49:02.608Z,73.56
2017-06-13T06:50:02.620Z,72.69
2017-06-13T06:51:02.682Z,72.79
2017-06-13T06:52:02.693Z,72.83
2017-06-13T06:53:02.763Z,72.34
2017-06-13T06:54:02.787Z,71.71
2017-06-13T06:55:02.828Z,70.84
2017-06-13T06:56:02.839Z,70.27
2017-06-13T06:57:02.878Z,70.11
2017-06-13T06:58:02.922Z,68.96
2017-06-13T06:59:02.976Z,68.51
2017-06-13T07:00:03.029Z,68.41
2017-06-13T07:01:03.023Z,67.77
2017-06-13T07:02:03.096Z,67.49
2017-06-13T07:03:03.113Z,67.87
2017-06-13T07:04:03.134Z,68.03
2017-06-13T07:05:03.218Z,68.32
2017-06-13T07:06:03.242Z,68.7
2017-06-13T07:07:03.260Z,67.93
2017-06-13T07:08:03.296Z,68.22
2017-06-13T07:09:03.354Z,68.32
2017-06-13T07:10:03.378Z,68.76
2017-06-13T07:11:03.408Z,68.38
2017-06-13T07:12:03.444Z,68.96
2017-06-13T07:13:03.496Z,69.4
2017-06-13T07:14:03.492Z,70.17
2017-06-13T07:15:03.571Z,70.46
2017-06-13T07:16:03.573Z,70.65
2017-06-13T07:17:03.588Z,70.72
2017-06-13T07:18:03.666Z,71.48
2017-06-13T07:19:03.679Z,71.87
2017-06-13T07:20:03.710Z,71.83
2017-06-13T07:21:03.771Z,72.12
2017-06-13T07:22:03.829Z,73.08
2017-06-13T07:23:03.866Z,72.31
2017-06-13T07:24:03.890Z,72.56
2017-06-13T07:25:03.946Z,72.85
2017-06-13T07:26:03.937Z,72.85
2017-06-13T07:27:04.011Z,72.85
2017-06-13T07:28:04.005Z,73.24
2017-06-13T07:29:04.092Z,73.72
2017-06-13T07:30:04.076Z,73.27
2017-06-13T07:31:04.117Z,72.79
2017-06-13T07:32:04.167Z,72.16
2017-06-13T07:33:04.231Z,71.39
2017-06-13T07:34:04.239Z,70.27
2017-06-13T07:35:04.241Z,69.44
2017-06-13T07:36:04.313Z,67.16
2017-06-13T07:37:04.356Z,63.41
2017-06-13T07:38:04.353Z,61.83
2017-06-13T07:39:04.428Z,60.25
2017-06-13T07:40:04.478Z,57.99
2017-06-13T07:41:04.495Z,56.86
2017-06-13T07:42:04.558Z,54.75
2017-06-13T07:43:04.556Z,52.44
2017-06-13T07:44:04.614Z,49.27
2017-06-13T07:45:04.631Z,46.3
2017-06-13T07:46:04.691Z,43.28
2017-06-13T07:47:04.732Z,41.86
2017-06-13T07:48:04.764Z,42.05
2017-06-13T07:49:04.822Z,42.13
2017-06-13T07:50:04.859Z,41.96
2017-06-13T07:51:04.889Z,42.05
2017-06-13T07:52:04.932Z,43.28
2017-06-13T07:53:04.965Z,44.95
2017-06-13T07:54:05.026Z,45.86
2017-06-13T07:55:05.051Z,48.1
2017-06-13T07:56:05.080Z,50.04
2017-06-13T07:57:05.162Z,52.39
2017-06-13T07:58:05.167Z,53.59
2017-06-13T07:59:05.269Z,55.35
2017-06-13T08:00:05.235Z,57.52
2017-06-13T08:01:05.260Z,59.07
2017-06-13T08:02:05.358Z,60.8
2017-06-13T08:03:05.377Z,61.83
2017-06-13T08:04:05.428Z,62.96
2017-06-13T08:05:05.436Z,63.22
2017-06-13T08:06:05.463Z,63.79
2017-06-13T08:07:05.522Z,64.37
2017-06-13T08:08:05.569Z,64.66
2017-06-13T08:09:05.605Z,64.76
2017-06-13T08:10:05.661Z,64.47
2017-06-13T08:11:05.659Z,64.31
2017-06-13T08:12:05.738Z,63.92
2017-06-13T08:13:05.757Z,63.44
2017-06-13T08:14:05.765Z,64.12
2017-06-13T08:15:05.809Z,64.02
2017-06-13T08:16:05.887Z,64.98
2017-06-13T08:17:05.907Z,64.86
2017-06-13T08:18:05.947Z,65.43
2017-06-13T08:19:05.959Z,66.17
2017-06-13T08:20:06.017Z,66.55
2017-06-13T08:21:06.018Z,67.19
2017-06-13T08:22:06.113Z,67.38
2017-06-13T08:23:06.110Z,68.31
2017-06-13T08:24:06.167Z,68.7
2017-06-13T08:25:06.204Z,69.46
2017-06-13T08:26:06.266Z,70.23
2017-06-13T08:27:06.258Z,70.01
2017-06-13T08:28:06.319Z,70.29
2017-06-13T08:29:06.326Z,70.29
2017-06-13T08:30:06.365Z,70.68
2017-06-13T08:31:06.459Z,71.12
2017-06-13T08:32:06.678Z,71.22
2017-06-13T08:33:06.502Z,71.12
2017-06-13T08:34:06.534Z,71.22
2017-06-13T08:35:06.583Z,71.64
2017-06-13T08:36:06.601Z,71.51
2017-06-13T08:37:06.682Z,71.41
2017-06-13T08:38:06.669Z,71.16
2017-06-13T08:39:06.681Z,70.68
2017-06-13T08:40:06.756Z,70.33
2017-06-13T08:41:06.829Z,69.66
2017-06-13T08:42:06.802Z,68.73
2017-06-13T08:43:07.067Z,67.99
2017-06-13T08:44:06.867Z,67.16
2017-06-13T08:45:06.934Z,66.39
2017-06-13T08:46:06.949Z,66.39
2017-06-13T08:47:07.005Z,66.58
2017-06-13T08:48:07.022Z,66.88
2017-06-13T08:49:07.068Z,67.45
2017-06-13T08:50:07.116Z,67.22
2017-06-13T08:51:07.188Z,67.8
2017-06-13T08:52:07.187Z,67.61
2017-06-13T08:53:07.231Z,67.99
2017-06-13T08:54:07.309Z,67.71
2017-06-13T08:55:07.302Z,67.42
2017-06-13T08:56:07.337Z,67.71
2017-06-13T08:57:07.375Z,67.16
2017-06-13T08:58:07.414Z,67.1
2017-06-13T08:59:07.451Z,66.27
2017-06-13T09:00:07.475Z,65.3
2017-06-13T09:01:07.526Z,64.28
2017-06-13T09:02:07.556Z,63.98
2017-06-13T09:03:07.579Z,62.93
2017-06-13T09:04:07.613Z,63.79
2017-06-13T09:05:07.663Z,63.41
2017-06-13T09:06:07.691Z,63.41
2017-06-13T09:07:07.747Z,63.79
2017-06-13T09:08:07.781Z,63.41
2017-06-13T09:09:07.797Z,63.41
2017-06-13T09:10:07.858Z,63.79
2017-06-13T09:11:07.870Z,63.7
2017-06-13T09:12:07.910Z,63.98
2017-06-13T09:13:07.978Z,63.95
2017-06-13T09:14:07.987Z,64.73
2017-06-13T09:15:08.045Z,64.89
2017-06-13T09:16:08.077Z,65.37
2017-06-13T09:17:08.119Z,65.66
2017-06-13T09:18:08.152Z,66.14
2017-06-13T09:19:08.167Z,66.24
2017-06-13T09:20:08.233Z,66.52
2017-06-13T09:21:08.242Z,66.33
2017-06-13T09:22:08.314Z,66.42
2017-06-13T09:23:08.358Z,66.52
2017-06-13T09:24:08.400Z,66.1
2017-06-13T09:25:08.396Z,66.39
2017-06-13T09:26:08.473Z,66.58
2017-06-13T09:27:08.466Z,66.2
2017-06-13T09:28:08.527Z,66.84
2017-06-13T09:29:08.542Z,66.94
2017-06-13T09:30:08.572Z,67.51
2017-06-13T09:31:08.642Z,67.03
2017-06-13T09:32:08.657Z,67.42
2017-06-13T09:33:08.700Z,66.84
2017-06-13T09:34:08.745Z,67.13
2017-06-13T09:35:08.768Z,67.22
2017-06-13T09:36:08.792Z,66.94
2017-06-13T09:37:08.887Z,66.55
2017-06-13T09:38:08.874Z,67.22
2017-06-13T09:39:08.929Z,67.13
2017-06-13T09:40:08.973Z,67.32
2017-06-13T09:41:09.031Z,67.32
2017-06-13T09:42:09.055Z,67.71
2017-06-13T09:43:09.083Z,67.71
2017-06-13T09:44:09.112Z,68.09
2017-06-13T09:45:09.155Z,67.99
2017-06-13T09:46:09.190Z,67.9
2017-06-13T09:47:09.226Z,67.71
2017-06-13T09:48:09.266Z,67.61
2017-06-13T09:49:09.295Z,67.51
2017-06-13T09:50:09.336Z,67.55
2017-06-13T09:51:09.380Z,67.07
2017-06-13T09:52:09.393Z,66.33
2017-06-13T09:53:09.449Z,65.11
2017-06-13T09:54:09.496Z,64.25
2017-06-13T09:55:09.543Z,63.6
2017-06-13T09:56:09.539Z,62.28
2017-06-13T09:57:09.596Z,61.77
2017-06-13T09:58:09.614Z,59.86
2017-06-13T09:59:09.650Z,59.38
2017-06-13T10:00:09.721Z,60.31
2017-06-13T10:01:13.488Z,60.31
2017-06-13T10:02:09.783Z,60.41
2017-06-13T10:03:09.800Z,60.89
2017-06-13T10:04:09.858Z,61.25
2017-06-13T10:05:09.918Z,61.16
2017-06-13T10:06:09.920Z,61.54
2017-06-13T10:07:09.977Z,61.54
2017-06-13T10:08:10.012Z,61.25
2017-06-13T10:09:10.027Z,61.06
2017-06-13T10:10:10.052Z,60.99
2017-06-13T10:11:10.118Z,61.57
2017-06-13T10:12:10.158Z,61.25
2017-06-13T10:13:10.222Z,61.44
2017-06-13T10:14:10.243Z,61.54
2017-06-13T10:15:10.279Z,61.38
2017-06-13T10:16:10.292Z,60.96
2017-06-13T10:17:10.352Z,60.51
2017-06-13T10:18:10.392Z,60.41
2017-06-13T10:19:10.429Z,60.31
2017-06-13T10:20:10.471Z,60.03
2017-06-13T10:21:10.485Z,59.64
2017-06-13T10:22:10.536Z,59.55
2017-06-13T10:23:10.599Z,59.35
2017-06-13T10:24:10.616Z,58.61
2017-06-13T10:25:10.634Z,58.22
2017-06-13T10:26:10.707Z,58.35
2017-06-13T10:27:10.713Z,57.38
2017-06-13T10:28:10.785Z,57.21
2017-06-13T10:29:10.831Z,56.15
2017-06-13T10:30:10.824Z,54.83
2017-06-13T10:31:10.863Z,54.85
2017-06-13T10:32:10.908Z,55.31
2017-06-13T10:33:10.970Z,55.77
2017-06-13T10:34:10.980Z,56.51
2017-06-13T10:35:11.039Z,57.19
2017-06-13T10:36:11.063Z,57.48
2017-06-13T10:37:11.117Z,57.84
2017-06-13T10:38:11.177Z,58.32
2017-06-13T10:39:11.168Z,58.39
2017-06-13T10:40:11.382Z,59.25
2017-06-13T10:41:11.272Z,59.13
2017-06-13T10:42:11.329Z,59.52
2017-06-13T10:43:11.331Z,60.1
2017-06-13T10:44:11.386Z,60.38
2017-06-13T10:45:11.441Z,60.19
2017-06-13T10:46:11.458Z,60.55
2017-06-13T10:47:11.478Z,60.74
2017-06-13T10:48:11.513Z,61.41
2017-06-13T10:49:11.607Z,61.32
2017-06-13T10:50:11.630Z,62.09
2017-06-13T10:51:11.639Z,61.96
2017-06-13T10:52:11.691Z,62.25
2017-06-13T10:53:11.708Z,62.45
2017-06-13T10:54:11.769Z,62.35
2017-06-13T10:55:11.795Z,62.73
2017-06-13T10:56:11.843Z,62.73
2017-06-13T10:57:11.882Z,62.45
2017-06-13T10:58:11.880Z,61.22
2017-06-13T10:59:11.980Z,60.38
2017-06-13T11:00:11.989Z,59.55
2017-06-13T11:01:20.548Z,58.06
2017-06-13T11:02:12.078Z,55.43
2017-06-13T11:03:12.085Z,53
2017-06-13T11:04:12.122Z,51.59
2017-06-13T11:05:12.196Z,50.38
2017-06-13T11:06:12.239Z,50.09
2017-06-13T11:07:12.237Z,49.8
2017-06-13T11:08:12.273Z,49.97
2017-06-13T11:09:12.316Z,50.14
2017-06-13T11:10:12.379Z,50.89
2017-06-13T11:11:12.378Z,51.72
2017-06-13T11:12:12.450Z,52.68
2017-06-13T11:13:12.449Z,53.69
2017-06-13T11:14:12.518Z,54.93
2017-06-13T11:15:12.598Z,55.47
2017-06-13T11:16:12.597Z,56.13
2017-06-13T11:17:12.646Z,56.48
2017-06-13T11:18:12.688Z,57.42
2017-06-13T11:19:12.925Z,57.62
2017-06-13T11:20:12.767Z,57.42
2017-06-13T11:21:12.799Z,57.26
2017-06-13T11:22:12.818Z,56.58
2017-06-13T11:23:12.871Z,56.13
2017-06-13T11:24:12.937Z,55.67
2017-06-13T11:25:12.929Z,54.93
2017-06-13T11:26:12.974Z,54.17
2017-06-13T11:27:13.046Z,54.27
2017-06-13T11:28:13.023Z,54.21
2017-06-13T11:29:13.113Z,54.11
2017-06-13T11:30:13.169Z,54.11
2017-06-13T11:31:13.189Z,54.3
2017-06-13T11:32:13.232Z,54.17
2017-06-13T11:33:13.272Z,54.73
2017-06-13T11:34:13.315Z,55.57
2017-06-13T11:35:13.318Z,56.05
2017-06-13T11:36:13.386Z,56.61
2017-06-13T11:37:13.406Z,56.71
2017-06-13T11:38:13.435Z,56.71
2017-06-13T11:39:13.461Z,57.09
2017-06-13T11:40:13.538Z,57.09
2017-06-13T11:41:13.570Z,57.09
2017-06-13T11:42:13.614Z,56.9
2017-06-13T11:43:13.629Z,56.61
2017-06-13T11:44:13.683Z,56.9
2017-06-13T11:45:13.730Z,56.99
2017-06-13T11:46:13.769Z,57.09
2017-06-13T11:47:13.808Z,57.48
2017-06-13T11:48:13.820Z,57.84
2017-06-13T11:49:13.860Z,59.25
2017-06-13T11:50:13.924Z,60.31
2017-06-13T11:51:13.977Z,60.1
2017-06-13T11:52:13.984Z,60.28
2017-06-13T11:53:14.033Z,60.35
2017-06-13T11:54:14.095Z,60.55
2017-06-13T11:55:14.109Z,60.64
2017-06-13T11:56:14.152Z,60.64
2017-06-13T11:57:14.201Z,60.19
2017-06-13T11:58:14.231Z,59.8
2017-06-13T11:59:14.252Z,59.25
2017-06-13T12:00:14.304Z,58.42
2017-06-13T12:01:14.339Z,57.93
2017-06-13T12:02:14.422Z,58.12
2017-06-13T12:03:14.398Z,57.84
2017-06-13T12:04:14.634Z,58.32
2017-06-13T12:05:14.491Z,58.42
2017-06-13T12:06:14.536Z,59.09
2017-06-13T12:07:14.550Z,58.9
2017-06-13T12:08:14.598Z,59.16
2017-06-13T12:09:14.655Z,59.25
2017-06-13T12:10:14.655Z,59.25
2017-06-13T12:11:14.729Z,60.48
2017-06-13T12:12:14.736Z,60.48
2017-06-13T12:13:14.804Z,61.41
2017-06-13T12:14:14.847Z,61.99
2017-06-13T12:15:14.874Z,62.54
2017-06-13T12:16:14.913Z,62.83
2017-06-13T12:17:14.956Z,62.7
2017-06-13T12:18:15.046Z,62.8
2017-06-13T12:19:15.048Z,63.28
2017-06-13T12:20:15.040Z,63.47
2017-06-13T12:21:15.102Z,63.18
2017-06-13T12:22:15.119Z,63.18
2017-06-13T12:23:15.193Z,63.12
2017-06-13T12:24:15.220Z,62.06
2017-06-13T12:25:15.233Z,61.68
2017-06-13T12:26:15.266Z,61.22
2017-06-13T12:27:15.302Z,60.35
2017-06-13T12:28:15.345Z,60
2017-06-13T12:29:15.429Z,59.58
2017-06-13T12:30:15.415Z,60.06
2017-06-13T12:31:15.478Z,60.16
2017-06-13T12:32:15.525Z,61.38
2017-06-13T12:33:15.562Z,61.68
2017-06-13T12:34:15.568Z,62.22
2017-06-13T12:35:15.643Z,62.99
2017-06-13T12:36:15.671Z,64.02
2017-06-13T12:37:15.682Z,64.31
2017-06-13T12:38:15.764Z,64.95
2017-06-13T12:39:15.746Z,65.05
2017-06-13T12:40:15.818Z,66.1
2017-06-13T12:41:15.860Z,66.39
2017-06-13T12:42:15.888Z,66.2
2017-06-13T12:43:15.925Z,66.17
2017-06-13T12:44:15.961Z,66.39
2017-06-13T12:45:16.000Z,65.24
2017-06-13T12:46:16.022Z,64.28
2017-06-13T12:47:16.056Z,63.92
2017-06-13T12:48:16.091Z,63.76
2017-06-13T12:49:16.136Z,63.18
2017-06-13T12:50:16.167Z,62.6
2017-06-13T12:51:16.242Z,62.54
2017-06-13T12:52:16.246Z,62.41
2017-06-13T12:53:16.317Z,62.8
2017-06-13T12:54:16.322Z,63.18
2017-06-13T12:55:16.371Z,63.18
2017-06-13T12:56:16.399Z,63.73